Time;durP1;ratioP1;P1;durP2;ratioP2;P2;SDS_P1;SDS_P2;PMS_P1;PMS_P2;Temp;Humidity;BMP_temperature;BMP_pressure;BME280_temperature;BME280_humidity;BME280_pressure;Samples;Min_cycle;Max_cycle;Signal;HPM_P1;HPM_P2
2023/09/11 00:01:56;;;;;;;1999.90;999.90;;;16.50;88.40;;;;;;5039972;28;20427;-78
2023/09/11 00:04:21;;;;;;;1999.90;999.90;;;16.50;88.20;;;;;;5037231;28;20055;-77
2023/09/11 00:06:47;;;;;;;1999.90;999.90;;;16.40;87.70;;;;;;5037612;28;20113;-77
2023/09/11 00:09:13;;;;;;;1999.90;999.90;;;16.40;88.50;;;;;;5040407;28;20026;-78
2023/09/11 00:11:39;;;;;;;1999.90;999.90;;;16.30;87.50;;;;;;5034557;28;20034;-78
2023/09/11 00:14:05;;;;;;;1999.90;999.90;;;16.20;87.80;;;;;;5039879;28;20037;-77
2023/09/11 00:16:30;;;;;;;1999.90;999.90;;;16.20;88.60;;;;;;5039317;28;20066;-78
2023/09/11 00:18:56;;;;;;;1999.90;999.90;;;16.10;89.10;;;;;;5041731;28;20029;-78
2023/09/11 00:21:23;;;;;;;1999.90;999.90;;;16.10;89.30;;;;;;5039505;28;20037;-77
2023/09/11 00:23:49;;;;;;;1999.90;999.90;;;16.10;89.30;;;;;;5036425;28;20029;-77
2023/09/11 00:26:15;;;;;;;1999.90;999.90;;;16.10;89.30;;;;;;5041249;28;20047;-78
2023/09/11 00:28:41;;;;;;;1999.90;999.90;;;16.00;89.40;;;;;;5037745;28;20500;-78
2023/09/11 00:31:07;;;;;;;1999.90;999.90;;;16.00;89.30;;;;;;5026649;28;20037;-77
2023/09/11 00:33:32;;;;;;;1999.90;999.90;;;16.10;90.20;;;;;;5039944;28;20446;-77
2023/09/11 00:35:58;;;;;;;1999.90;999.90;;;16.20;90.40;;;;;;5038814;28;20033;-77
2023/09/11 00:38:24;;;;;;;1999.90;999.90;;;16.30;90.60;;;;;;5038897;28;20182;-78
2023/09/11 00:40:49;;;;;;;1999.90;999.90;;;16.30;90.70;;;;;;5039036;28;20079;-79
2023/09/11 00:43:15;;;;;;;1999.90;999.90;;;16.30;90.60;;;;;;5038050;28;20032;-78
2023/09/11 00:45:42;;;;;;;1999.90;999.90;;;16.20;90.50;;;;;;5035324;28;20030;-77
2023/09/11 00:48:08;;;;;;;1999.90;999.90;;;16.10;90.50;;;;;;5039710;28;20124;-77
2023/09/11 00:50:34;;;;;;;1999.90;999.90;;;16.10;90.50;;;;;;5036047;28;20025;-78
2023/09/11 00:53:02;;;;;;;1999.90;999.90;;;16.00;90.60;;;;;;5039808;28;20410;-80
2023/09/11 00:55:28;;;;;;;1999.90;999.90;;;16.00;90.40;;;;;;5036280;28;20060;-79
2023/09/11 00:57:54;;;;;;;1999.90;999.90;;;15.90;90.60;;;;;;5023710;28;20029;-78
2023/09/11 01:00:21;;;;;;;1999.90;999.90;;;15.90;90.70;;;;;;5038292;28;20477;-80
2023/09/11 01:02:48;;;;;;;1999.90;999.90;;;15.90;90.90;;;;;;5038268;28;20795;-78
2023/09/11 01:05:13;;;;;;;1999.90;999.90;;;16.00;91.10;;;;;;5037610;28;20033;-76
2023/09/11 01:07:39;;;;;;;1999.90;999.90;;;16.10;91.20;;;;;;5042177;28;20201;-78
2023/09/11 01:10:06;;;;;;;1999.90;999.90;;;16.00;91.20;;;;;;5039962;28;20075;-78
2023/09/11 01:12:36;;;;;;;1999.90;999.90;;;16.10;91.30;;;;;;5040140;28;20398;-78
2023/09/11 01:15:04;;;;;;;1999.90;999.90;;;16.10;91.20;;;;;;5038556;28;20029;-79
2023/09/11 01:17:56;;;;;;;1999.90;999.90;;;16.10;91.20;;;;;;5040293;28;20112;-78
2023/09/11 01:21:02;;;;;;;1999.90;999.90;;;16.00;91.00;;;;;;5035898;28;20025;-80
2023/09/11 01:23:56;;;;;;;1999.90;999.90;;;16.00;91.00;;;;;;5042266;28;20463;-78
2023/09/11 01:26:54;;;;;;;1999.90;999.90;;;16.00;91.10;;;;;;5038788;28;20080;-77
2023/09/11 01:29:25;;;;;;;1999.90;999.90;;;15.90;91.10;;;;;;5039314;28;20045;-78
2023/09/11 01:31:53;;;;;;;1999.90;999.90;;;15.90;91.20;;;;;;5034490;28;20034;-78
2023/09/11 01:34:19;;;;;;;1999.90;999.90;;;15.90;91.40;;;;;;5039480;28;20029;-78
2023/09/11 01:36:44;;;;;;;1999.90;999.90;;;15.90;91.50;;;;;;5037206;28;20025;-78
2023/09/11 01:39:11;;;;;;;1999.90;999.90;;;16.10;91.70;;;;;;5040038;28;20133;-77
2023/09/11 01:41:40;;;;;;;1999.90;999.90;;;16.10;91.60;;;;;;5041169;28;20037;-78
2023/09/11 01:44:19;;;;;;;1999.90;999.90;;;16.10;91.60;;;;;;5038487;28;20037;-78
2023/09/11 01:46:47;;;;;;;1999.90;999.90;;;16.00;91.50;;;;;;5039568;28;20052;-78
2023/09/11 01:49:15;;;;;;;1999.90;999.90;;;16.00;91.50;;;;;;5038302;28;20124;-77
2023/09/11 01:51:41;;;;;;;1999.90;999.90;;;15.90;91.50;;;;;;5042462;28;20368;-77
2023/09/11 01:54:08;;;;;;;1999.90;999.90;;;15.80;91.40;;;;;;5038967;28;20513;-79
2023/09/11 01:56:35;;;;;;;1999.90;999.90;;;15.80;91.50;;;;;;5041074;28;20033;-77
2023/09/11 01:59:01;;;;;;;1999.90;999.90;;;15.80;91.60;;;;;;5039529;28;20037;-78
2023/09/11 02:01:27;;;;;;;1999.90;999.90;;;15.70;91.50;;;;;;5041829;28;20392;-80
2023/09/11 02:03:52;;;;;;;1999.90;999.90;;;15.70;91.60;;;;;;5038088;28;20033;-77
2023/09/11 02:06:18;;;;;;;1999.90;999.90;;;15.70;91.60;;;;;;5037011;28;20088;-78
2023/09/11 02:08:44;;;;;;;1999.90;999.90;;;15.70;91.70;;;;;;5043067;28;20037;-78
2023/09/11 02:11:10;;;;;;;1999.90;999.90;;;15.70;91.80;;;;;;5038949;28;20078;-79
2023/09/11 02:13:36;;;;;;;1999.90;999.90;;;15.70;91.90;;;;;;5072022;28;20025;-77
2023/09/11 02:16:02;;;;;;;1999.90;999.90;;;15.70;91.90;;;;;;5040197;28;20029;-78
2023/09/11 02:18:28;;;;;;;1999.90;999.90;;;15.70;92.10;;;;;;5038961;28;20025;-77
2023/09/11 02:20:53;;;;;;;1999.90;999.90;;;15.70;92.20;;;;;;5037328;28;20741;-78
2023/09/11 02:23:20;;;;;;;1999.90;999.90;;;15.80;92.30;;;;;;5034653;28;20444;-77
2023/09/11 02:25:47;;;;;;;1999.90;999.90;;;15.80;92.10;;;;;;5041137;28;20035;-78
2023/09/11 02:28:14;;;;;;;1999.90;999.90;;;15.80;92.20;;;;;;5036576;28;20475;-79
2023/09/11 02:30:39;;;;;;;1999.90;999.90;;;15.80;92.20;;;;;;5038217;28;20037;-78
2023/09/11 02:33:05;;;;;;;1999.90;999.90;;;15.80;92.20;;;;;;5039845;28;20419;-78
2023/09/11 02:35:31;;;;;;;1999.90;999.90;;;15.70;92.20;;;;;;5037553;28;20067;-77
2023/09/11 02:37:58;;;;;;;1999.90;999.90;;;15.70;92.20;;;;;;5037339;28;20061;-77
2023/09/11 02:40:23;;;;;;;1999.90;999.90;;;15.60;92.20;;;;;;5039752;28;20136;-78
2023/09/11 02:42:49;;;;;;;1999.90;999.90;;;15.60;92.40;;;;;;5036191;28;20124;-78
2023/09/11 02:45:15;;;;;;;1999.90;999.90;;;15.60;92.40;;;;;;5039475;28;20558;-78
2023/09/11 02:47:40;;;;;;;1999.90;999.90;;;15.60;92.40;;;;;;5043659;28;20056;-77
2023/09/11 02:50:07;;;;;;;1999.90;999.90;;;15.60;92.40;;;;;;5035703;28;20095;-79
2023/09/11 02:52:33;;;;;;;1999.90;999.90;;;15.50;92.30;;;;;;5036202;28;20033;-79
2023/09/11 02:54:58;;;;;;;1999.90;999.90;;;15.50;92.30;;;;;;5037365;28;20033;-78
2023/09/11 02:57:24;;;;;;;1999.90;999.90;;;15.40;92.30;;;;;;5036205;28;20079;-77
2023/09/11 02:59:54;;;;;;;1999.90;999.90;;;15.40;92.40;;;;;;5029872;28;20407;-78
2023/09/11 03:02:21;;;;;;;;;;;15.40;92.40;;;;;;5016271;28;20034;-79
2023/09/11 03:04:49;;;;;;;1999.90;999.90;;;15.40;92.40;;;;;;5036823;28;19971;-78
2023/09/11 03:07:17;;;;;;;1999.90;999.90;;;15.30;92.40;;;;;;5033719;28;20144;-79
2023/09/11 03:09:44;;;;;;;1999.90;999.90;;;15.30;92.40;;;;;;5034401;28;20121;-78
2023/09/11 03:12:10;;;;;;;1999.90;999.90;;;15.20;92.40;;;;;;5030237;28;20033;-79
2023/09/11 03:14:36;;;;;;;1999.90;999.90;;;15.20;92.60;;;;;;5034167;28;20446;-77
2023/09/11 03:17:01;;;;;;;1999.90;999.90;;;15.20;92.60;;;;;;5036563;28;20037;-78
2023/09/11 03:19:27;;;;;;;1999.90;999.90;;;15.20;92.70;;;;;;5032280;28;20042;-78
2023/09/11 03:21:54;;;;;;;1999.90;999.90;;;15.20;92.70;;;;;;5031350;28;20049;-80
2023/09/11 03:24:20;;;;;;;1999.90;999.90;;;15.20;92.80;;;;;;5030411;28;20041;-78
2023/09/11 03:26:46;;;;;;;1999.90;999.90;;;15.30;93.00;;;;;;5033449;28;20029;-77
2023/09/11 03:29:12;;;;;;;1999.90;999.90;;;15.20;93.00;;;;;;5037477;28;20458;-78
2023/09/11 03:31:38;;;;;;;1999.90;999.90;;;15.20;93.00;;;;;;5035653;28;20041;-78
2023/09/11 03:34:03;;;;;;;1999.90;999.90;;;15.20;93.00;;;;;;5032363;28;20041;-78
2023/09/11 03:36:29;;;;;;;1999.90;999.90;;;15.20;93.00;;;;;;5033120;28;20100;-79
2023/09/11 03:38:55;;;;;;;1999.90;999.90;;;15.20;93.10;;;;;;5035717;28;20038;-77
2023/09/11 03:41:21;;;;;;;1999.90;999.90;;;15.20;93.10;;;;;;5039098;28;20029;-79
2023/09/11 03:43:47;;;;;;;1999.90;999.90;;;15.20;93.20;;;;;;5036923;28;20392;-78
2023/09/11 03:46:13;;;;;;;1999.90;999.90;;;15.20;93.10;;;;;;5036945;28;20033;-79
2023/09/11 03:48:40;;;;;;;1999.90;999.90;;;15.20;93.10;;;;;;5039196;28;20029;-79
2023/09/11 03:51:06;;;;;;;1999.90;999.90;;;15.10;93.00;;;;;;5033046;28;20044;-79
2023/09/11 03:53:31;;;;;;;1999.90;999.90;;;15.10;93.00;;;;;;5039693;28;20037;-78
2023/09/11 03:55:57;;;;;;;1999.90;999.90;;;15.00;93.00;;;;;;5039993;28;20082;-78
2023/09/11 03:58:23;;;;;;;1999.90;999.90;;;14.90;92.90;;;;;;5036047;28;20033;-79
2023/09/11 04:00:48;;;;;;;1999.90;999.90;;;14.90;92.90;;;;;;5042495;28;20052;-79
2023/09/11 04:03:14;;;;;;;1999.90;999.90;;;14.90;92.90;;;;;;5033985;28;20033;-78
2023/09/11 04:05:40;;;;;;;1999.90;999.90;;;14.70;92.60;;;;;;5036076;28;20147;-80
2023/09/11 04:08:05;;;;;;;1999.90;999.90;;;14.70;92.60;;;;;;5035270;28;20495;-80
2023/09/11 04:10:31;;;;;;;1999.90;999.90;;;14.70;92.80;;;;;;5034850;28;20064;-77
2023/09/11 04:12:57;;;;;;;1999.90;999.90;;;14.70;92.80;;;;;;5040222;28;20036;-78
2023/09/11 04:15:22;;;;;;;1999.90;999.90;;;14.70;93.00;;;;;;5039216;28;20083;-77
2023/09/11 04:17:48;;;;;;;1999.90;999.90;;;14.70;93.00;;;;;;5039458;28;20083;-78
2023/09/11 04:20:14;;;;;;;1999.90;999.90;;;14.60;93.00;;;;;;5040828;28;20049;-78
2023/09/11 04:22:39;;;;;;;1999.90;999.90;;;14.60;93.20;;;;;;5061477;28;20453;-78
2023/09/11 04:25:05;;;;;;;1999.90;999.90;;;14.70;93.30;;;;;;5048492;28;20063;-77
2023/09/11 04:27:31;;;;;;;1999.90;999.90;;;14.70;93.40;;;;;;5043720;28;20148;-78
2023/09/11 04:29:57;;;;;;;1999.90;999.90;;;14.70;93.40;;;;;;5041522;28;20139;-77
2023/09/11 04:32:22;;;;;;;1999.90;999.90;;;14.70;93.40;;;;;;5040733;28;20075;-79
2023/09/11 04:34:48;;;;;;;1999.90;999.90;;;14.60;93.50;;;;;;5038361;28;20462;-80
2023/09/11 04:37:16;;;;;;;1999.90;999.90;;;14.70;93.60;;;;;;5031718;28;20037;-77
2023/09/11 04:39:42;;;;;;;1999.90;999.90;;;14.60;93.50;;;;;;5035109;28;20120;-78
2023/09/11 04:42:07;;;;;;;1999.90;999.90;;;14.60;93.40;;;;;;5034492;28;20116;-79
2023/09/11 04:44:33;;;;;;;1999.90;999.90;;;14.50;93.40;;;;;;5034785;28;20034;-78
2023/09/11 04:46:59;;;;;;;1999.90;999.90;;;14.50;93.40;;;;;;5039559;28;20026;-78
2023/09/11 04:49:24;;;;;;;1999.90;999.90;;;14.60;93.60;;;;;;5037999;28;20038;-78
2023/09/11 04:51:50;;;;;;;1999.90;999.90;;;14.60;93.60;;;;;;5037092;28;20082;-78
2023/09/11 04:54:15;;;;;;;1999.90;999.90;;;14.60;93.50;;;;;;5031539;28;20030;-77
2023/09/11 04:56:42;;;;;;;1999.90;999.90;;;14.60;93.60;;;;;;5035719;28;20435;-78
2023/09/11 04:59:08;;;;;;;1999.90;999.90;;;14.60;93.60;;;;;;5032371;28;20708;-77
2023/09/11 05:01:33;;;;;;;1999.90;999.90;;;14.60;93.60;;;;;;5040837;28;20043;-78
2023/09/11 05:03:59;;;;;;;1999.90;999.90;;;14.60;93.60;;;;;;5044971;28;20033;-78
2023/09/11 05:06:25;;;;;;;1999.90;999.90;;;14.70;93.80;;;;;;5044450;28;20034;-77
2023/09/11 05:08:51;;;;;;;1999.90;999.90;;;14.70;93.80;;;;;;5049376;28;20037;-79
2023/09/11 05:11:16;;;;;;;1999.90;999.90;;;14.70;93.70;;;;;;5042830;28;20037;-78
2023/09/11 05:13:42;;;;;;;1999.90;999.90;;;14.80;93.90;;;;;;5034984;28;20048;-78
2023/09/11 05:16:08;;;;;;;1999.90;999.90;;;14.80;93.90;;;;;;5035383;28;20029;-79
2023/09/11 05:18:33;;;;;;;1999.90;999.90;;;14.80;93.90;;;;;;5040712;28;20396;-77
2023/09/11 05:20:59;;;;;;;1999.90;999.90;;;14.80;93.90;;;;;;5035846;28;20056;-79
2023/09/11 05:23:24;;;;;;;1999.90;999.90;;;14.90;93.90;;;;;;5034431;28;20120;-81
2023/09/11 05:25:50;;;;;;;1999.90;999.90;;;14.90;93.80;;;;;;5036761;28;20045;-80
2023/09/11 05:28:16;;;;;;;1999.90;999.90;;;14.90;93.90;;;;;;5035538;28;20056;-79
2023/09/11 05:30:41;;;;;;;1999.90;999.90;;;15.00;93.90;;;;;;5035196;28;20036;-75
2023/09/11 05:33:08;;;;;;;1999.90;999.90;;;15.00;93.80;;;;;;5036232;28;20044;-87
2023/09/11 05:35:34;;;;;;;1999.90;999.90;;;15.00;93.70;;;;;;5031705;28;20082;-81
2023/09/11 05:38:00;;;;;;;1999.90;999.90;;;15.00;93.70;;;;;;5031227;28;20082;-78
2023/09/11 05:40:25;;;;;;;1999.90;999.90;;;15.00;93.60;;;;;;5034226;28;20444;-79
2023/09/11 05:42:51;;;;;;;1999.90;999.90;;;15.00;93.50;;;;;;5040773;28;20045;-75
2023/09/11 05:45:17;;;;;;;1999.90;999.90;;;15.10;93.60;;;;;;5033853;28;20034;-78
2023/09/11 05:47:42;;;;;;;1999.90;999.90;;;15.10;93.60;;;;;;5035295;28;20029;-81
2023/09/11 05:50:09;;;;;;;1999.90;999.90;;;15.20;93.50;;;;;;5037150;28;20025;-78
2023/09/11 05:52:34;;;;;;;1999.90;999.90;;;15.20;93.50;;;;;;5032664;28;20030;-81
2023/09/11 05:55:00;;;;;;;1999.90;999.90;;;15.30;93.40;;;;;;5032923;28;20405;-81
2023/09/11 05:57:26;;;;;;;1999.90;999.90;;;15.30;93.40;;;;;;5036376;28;20428;-80
2023/09/11 05:59:51;;;;;;;1999.90;999.90;;;15.40;93.40;;;;;;5036725;28;20365;-80
2023/09/11 06:02:17;;;;;;;1999.90;999.90;;;15.50;93.40;;;;;;5030481;28;20034;-82
2023/09/11 06:04:43;;;;;;;1999.90;999.90;;;15.60;93.40;;;;;;5034191;28;20025;-82
2023/09/11 06:07:09;;;;;;;1999.90;999.90;;;15.70;93.30;;;;;;5031368;28;20030;-83
2023/09/11 06:09:34;;;;;;;1999.90;999.90;;;15.80;93.30;;;;;;5029503;28;20064;-81
2023/09/11 06:12:00;;;;;;;1999.90;999.90;;;15.90;93.30;;;;;;5036020;28;20036;-80
2023/09/11 06:14:26;;;;;;;1999.90;999.90;;;16.00;93.10;;;;;;5034228;28;20040;-82
2023/09/11 06:16:52;;;;;;;1999.90;999.90;;;16.10;93.00;;;;;;5033637;28;20025;-83
2023/09/11 06:19:18;;;;;;;1999.90;999.90;;;16.20;92.80;;;;;;5028670;28;20107;-82
2023/09/11 06:21:44;;;;;;;1999.90;999.90;;;16.30;92.60;;;;;;5035501;28;20528;-81
2023/09/11 06:24:10;;;;;;;1999.90;999.90;;;16.40;92.40;;;;;;5034240;28;20040;-82
2023/09/11 06:26:36;;;;;;;1999.90;999.90;;;16.50;92.20;;;;;;5036745;28;20124;-79
2023/09/11 06:29:02;;;;;;;1999.90;999.90;;;16.60;92.00;;;;;;5038894;28;20128;-81
2023/09/11 06:31:30;;;;;;;1999.90;999.90;;;16.70;91.70;;;;;;5036942;28;20516;-82
2023/09/11 06:33:56;;;;;;;1999.90;999.90;;;16.80;91.30;;;;;;5037763;28;20021;-84
2023/09/11 06:36:22;;;;;;;1999.90;999.90;;;16.90;91.40;;;;;;5037824;28;20082;-83
2023/09/11 06:38:51;;;;;;;1999.90;999.90;;;17.00;91.00;;;;;;5036370;28;20025;-86
2023/09/11 06:41:16;;;;;;;1999.90;999.90;;;17.10;90.50;;;;;;5039017;28;20037;-78
2023/09/11 06:43:42;;;;;;;1999.90;999.90;;;17.20;90.60;;;;;;5028772;28;20665;-82
2023/09/11 06:46:09;;;;;;;1999.90;999.90;;;17.30;90.40;;;;;;5034514;28;20037;-81
2023/09/11 06:48:34;;;;;;;1999.90;999.90;;;17.40;90.30;;;;;;5032244;28;20150;-78
2023/09/11 06:51:00;;;;;;;1999.90;999.90;;;17.50;90.10;;;;;;5033041;28;20124;-78
2023/09/11 06:53:26;;;;;;;1999.90;999.90;;;17.60;90.00;;;;;;5031124;28;20038;-81
2023/09/11 06:55:51;;;;;;;1999.90;999.90;;;17.80;90.00;;;;;;5033802;28;20075;-78
2023/09/11 06:58:17;;;;;;;1999.90;999.90;;;17.90;89.30;;;;;;5029883;28;20030;-81
2023/09/11 07:00:43;;;;;;;1999.90;999.90;;;18.00;88.90;;;;;;5035851;28;20087;-78
2023/09/11 07:03:09;;;;;;;1999.90;999.90;;;18.10;89.00;;;;;;5029073;28;20037;-79
2023/09/11 07:05:35;;;;;;;1999.90;999.90;;;18.20;87.50;;;;;;5038610;28;20034;-83
2023/09/11 07:08:00;;;;;;;1999.90;999.90;;;18.40;87.90;;;;;;5032048;28;20128;-79
2023/09/11 07:10:26;;;;;;;1999.90;999.90;;;18.50;87.10;;;;;;5033425;28;20045;-79
2023/09/11 07:12:52;;;;;;;1999.90;999.90;;;18.60;86.70;;;;;;5033304;28;20411;-79
2023/09/11 07:15:19;;;;;;;1999.90;999.90;;;18.80;85.70;;;;;;5035662;28;20042;-79
2023/09/11 07:17:45;;;;;;;1999.90;999.90;;;18.80;84.50;;;;;;5032961;28;20030;-78
2023/09/11 07:20:14;;;;;;;1999.90;999.90;;;19.00;84.50;;;;;;5038260;28;20033;-80
2023/09/11 07:22:40;;;;;;;1999.90;999.90;;;19.10;84.10;;;;;;5033112;28;20033;-79
2023/09/11 07:25:11;;;;;;;1999.90;999.90;;;19.20;83.20;;;;;;5038901;28;20542;-79
2023/09/11 07:27:37;;;;;;;1999.90;999.90;;;19.40;83.90;;;;;;5033354;28;20032;-78
2023/09/11 07:30:03;;;;;;;1999.90;999.90;;;19.50;83.00;;;;;;5043396;28;20187;-80
2023/09/11 07:32:30;;;;;;;1999.90;999.90;;;19.60;82.20;;;;;;5033977;28;20503;-80
2023/09/11 07:34:56;;;;;;;1999.90;999.90;;;19.70;81.30;;;;;;5019269;28;20053;-77
2023/09/11 07:37:22;;;;;;;1999.90;999.90;;;19.90;80.50;;;;;;5035927;28;20025;-80
2023/09/11 07:39:48;;;;;;;1999.90;999.90;;;20.10;80.90;;;;;;5039915;28;20029;-76
2023/09/11 07:42:13;;;;;;;1999.90;999.90;;;20.20;80.20;;;;;;5038034;28;20082;-76
2023/09/11 07:44:39;;;;;;;1999.90;999.90;;;20.30;78.20;;;;;;5033983;28;20395;-77
2023/09/11 07:47:05;;;;;;;1999.90;999.90;;;20.40;77.70;;;;;;5034789;28;20043;-76
2023/09/11 07:49:30;;;;;;;1999.90;999.90;;;20.40;77.30;;;;;;5036841;28;20041;-77
2023/09/11 07:51:56;;;;;;;1999.90;999.90;;;20.50;76.50;;;;;;5034055;28;20033;-76
2023/09/11 07:54:22;;;;;;;1999.90;999.90;;;20.70;76.50;;;;;;5034581;28;20383;-76
2023/09/11 07:56:48;;;;;;;1999.90;999.90;;;20.80;75.90;;;;;;5034376;28;20474;-76
2023/09/11 07:59:13;;;;;;;1999.90;999.90;;;20.90;75.90;;;;;;5037972;28;20415;-76
2023/09/11 08:01:39;;;;;;;1999.90;999.90;;;21.00;74.70;;;;;;5037610;28;20041;-76
2023/09/11 08:04:05;;;;;;;1999.90;999.90;;;21.10;75.90;;;;;;5035200;28;20470;-77
2023/09/11 08:06:31;;;;;;;1999.90;999.90;;;21.20;74.70;;;;;;5038028;28;20523;-76
2023/09/11 08:09:03;;;;;;;1999.90;999.90;;;21.40;74.50;;;;;;5049042;28;20037;-76
2023/09/11 08:11:29;;;;;;;1999.90;999.90;;;21.40;73.60;;;;;;5032582;28;20032;-76
2023/09/11 08:13:55;;;;;;;1999.90;999.90;;;21.60;73.90;;;;;;5032600;28;20073;-75
2023/09/11 08:16:21;;;;;;;1999.90;999.90;;;21.80;74.90;;;;;;5032568;28;20036;-76
2023/09/11 08:18:47;;;;;;;1999.90;999.90;;;21.90;72.50;;;;;;5041108;28;20517;-75
2023/09/11 08:21:12;;;;;;;1999.90;999.90;;;22.10;72.80;;;;;;5032908;28;20087;-76
2023/09/11 08:23:41;;;;;;;1999.90;999.90;;;22.20;70.80;;;;;;5037473;28;20057;-76
2023/09/11 08:26:08;;;;;;;1999.90;999.90;;;22.50;71.70;;;;;;5035884;28;20087;-76
2023/09/11 08:28:34;;;;;;;1999.90;999.90;;;22.50;69.90;;;;;;5037159;28;20143;-76
2023/09/11 08:30:59;;;;;;;1999.90;999.90;;;22.50;67.80;;;;;;5021299;28;20483;-77
2023/09/11 08:33:26;;;;;;;1999.90;999.90;;;22.50;68.80;;;;;;5019668;28;20034;-76
2023/09/11 08:35:51;;;;;;;1999.90;999.90;;;22.80;69.40;;;;;;5036871;28;20064;-77
2023/09/11 08:38:18;;;;;;;1999.90;999.90;;;22.90;67.70;;;;;;5038528;28;20056;-76
2023/09/11 08:40:44;;;;;;;1999.90;999.90;;;23.10;67.40;;;;;;5038072;28;20044;-76
2023/09/11 08:43:10;;;;;;;1999.90;999.90;;;23.20;66.60;;;;;;5040365;28;20036;-76
2023/09/11 08:45:37;;;;;;;1999.90;999.90;;;23.30;66.30;;;;;;5039788;28;20525;-76
2023/09/11 08:48:10;;;;;;;1999.90;999.90;;;23.40;66.10;;;;;;5033304;28;20036;-75
2023/09/11 08:50:43;;;;;;;1999.90;999.90;;;23.50;65.50;;;;;;5036167;28;20037;-74
2023/09/11 08:53:10;;;;;;;1999.90;999.90;;;23.70;64.40;;;;;;5033683;28;20055;-74
2023/09/11 08:55:36;;;;;;;1999.90;999.90;;;23.90;64.20;;;;;;5026732;28;20032;-74
2023/09/11 08:58:08;;;;;;;1999.90;999.90;;;24.00;64.60;;;;;;5038002;28;20033;-75
2023/09/11 09:00:35;;;;;;;1999.90;999.90;;;24.30;65.00;;;;;;5030904;28;20030;-75
2023/09/11 09:03:02;;;;;;;1999.90;999.90;;;24.30;62.40;;;;;;5017815;28;20052;-74
2023/09/11 09:05:29;;;;;;;1999.90;999.90;;;24.40;63.70;;;;;;5030921;28;20036;-74
2023/09/11 09:07:57;;;;;;;1999.90;999.90;;;24.40;63.80;;;;;;5036774;28;20025;-74
2023/09/11 09:10:25;;;;;;;1999.90;999.90;;;24.70;64.50;;;;;;5033885;28;20044;-75
2023/09/11 09:12:50;;;;;;;1999.90;999.90;;;25.00;61.80;;;;;;5030359;28;20039;-74
2023/09/11 09:15:17;;;;;;;1999.90;999.90;;;25.20;62.00;;;;;;5035226;28;20078;-74
2023/09/11 09:17:43;;;;;;;1999.90;999.90;;;25.20;61.00;;;;;;5036201;28;20096;-74
2023/09/11 09:20:10;;;;;;;1999.90;999.90;;;25.20;61.30;;;;;;5029894;28;20161;-76
2023/09/11 09:22:51;;;;;;;1999.90;999.90;;;25.30;60.10;;;;;;5033783;28;20079;-77
2023/09/11 09:25:17;;;;;;;1999.90;999.90;;;25.50;59.60;;;;;;5035374;28;20032;-77
2023/09/11 09:27:42;;;;;;;1999.90;999.90;;;25.50;58.10;;;;;;5036112;28;20036;-76
2023/09/11 09:30:21;;;;;;;1999.90;999.90;;;25.90;58.60;;;;;;5036797;28;20578;-76
2023/09/11 09:32:49;;;;;;;1999.90;999.90;;;26.00;59.00;;;;;;5034651;28;20032;-76
2023/09/11 09:35:20;;;;;;;1999.90;999.90;;;25.80;56.70;;;;;;5034588;28;20021;-76
2023/09/11 09:37:50;;;;;;;1999.90;999.90;;;25.90;57.60;;;;;;5038846;28;20022;-77
2023/09/11 09:40:30;;;;;;;;;;;26.30;57.50;;;;;;5037571;28;20021;-77
2023/09/11 09:42:58;;;;;;;1999.90;999.90;;;26.30;55.50;;;;;;5033273;28;20001;-76
2023/09/11 09:45:39;;;;;;;1999.90;999.90;;;26.60;55.20;;;;;;5035330;28;20029;-77
2023/09/11 09:48:14;;;;;;;1999.90;999.90;;;26.70;54.00;;;;;;5030919;28;20024;-77
2023/09/11 09:51:02;;;;;;;1999.90;999.90;;;26.80;55.30;;;;;;5035849;28;20455;-77
2023/09/11 09:53:33;;;;;;;1999.90;999.90;;;26.90;54.90;;;;;;5030904;28;20503;-77
2023/09/11 09:56:10;;;;;;;1999.90;999.90;;;26.80;54.60;;;;;;5027236;28;20033;-77
2023/09/11 09:58:44;;;;;;;1999.90;999.90;;;26.90;53.60;;;;;;5032359;28;20033;-77
2023/09/11 10:01:17;;;;;;;1999.90;999.90;;;27.20;52.80;;;;;;5034258;28;20155;-77
2023/09/11 10:03:51;;;;;;;1999.90;999.90;;;27.20;52.60;;;;;;5034227;28;20584;-77
2023/09/11 10:06:23;;;;;;;1999.90;999.90;;;27.50;51.30;;;;;;5018904;28;20034;-78
2023/09/11 10:09:24;;;;;;;1999.90;999.90;;;27.50;49.60;;;;;;5032337;28;20108;-77
2023/09/11 10:11:50;;;;;;;1999.90;999.90;;;27.60;53.30;;;;;;5009744;28;20190;-77
2023/09/11 10:14:18;;;;;;;1999.90;999.90;;;27.60;47.60;;;;;;5027581;28;20090;-77
2023/09/11 10:16:46;;;;;;;1999.90;999.90;;;28.00;51.60;;;;;;5038810;28;20438;-77
2023/09/11 10:19:12;;;;;;;1999.90;999.90;;;28.00;51.10;;;;;;5029709;28;20048;-77
2023/09/11 10:21:38;;;;;;;1999.90;999.90;;;27.90;50.00;;;;;;5028445;28;20048;-77
2023/09/11 10:24:06;;;;;;;1999.90;999.90;;;28.10;47.10;;;;;;5033895;28;20025;-77
2023/09/11 10:26:36;;;;;;;1999.90;999.90;;;28.30;44.80;;;;;;5034248;28;20037;-76
2023/09/11 10:29:09;;;;;;;1999.90;999.90;;;28.10;46.20;;;;;;5027285;28;20144;-76
2023/09/11 10:31:58;;;;;;;1999.90;999.90;;;28.40;46.20;;;;;;5033915;28;20032;-76
2023/09/11 10:34:25;;;;;;;1999.90;999.90;;;28.70;47.40;;;;;;5032774;28;20032;-77
2023/09/11 10:36:56;;;;;;;1999.90;999.90;;;29.10;46.30;;;;;;5034143;28;20029;-76
2023/09/11 10:39:22;;;;;;;1999.90;999.90;;;29.50;44.10;;;;;;5028298;28;20022;-76
2023/09/11 10:41:48;;;;;;;1999.90;999.90;;;29.50;44.30;;;;;;5042025;28;20044;-80
2023/09/11 10:44:16;;;;;;;1999.90;999.90;;;29.50;45.90;;;;;;5031135;28;20519;-80
2023/09/11 10:46:48;;;;;;;1999.90;999.90;;;29.60;42.20;;;;;;5031704;28;20526;-80
2023/09/11 10:49:19;;;;;;;1999.90;999.90;;;29.70;42.90;;;;;;5036705;28;20065;-80
2023/09/11 10:51:47;;;;;;;1999.90;999.90;;;30.30;41.60;;;;;;5031716;28;20056;-80
2023/09/11 10:54:19;;;;;;;1999.90;999.90;;;30.90;40.20;;;;;;5033053;28;20037;-80
2023/09/11 10:56:45;;;;;;;1999.90;999.90;;;31.00;41.50;;;;;;5034236;28;20030;-80
2023/09/11 10:59:13;;;;;;;1999.90;999.90;;;30.90;41.20;;;;;;5033053;28;20035;-80
2023/09/11 11:01:39;;;;;;;1999.90;999.90;;;31.60;37.80;;;;;;5029694;28;20032;-81
2023/09/11 11:04:06;;;;;;;1999.90;999.90;;;31.90;36.60;;;;;;5028704;28;20033;-80
2023/09/11 11:06:33;;;;;;;1999.90;999.90;;;32.00;37.00;;;;;;5029377;28;20038;-80
2023/09/11 11:09:01;;;;;;;1999.90;999.90;;;32.00;34.70;;;;;;5030058;28;20034;-80
2023/09/11 11:11:29;;;;;;;1999.90;999.90;;;32.30;32.70;;;;;;5033839;28;20056;-81
2023/09/11 11:14:15;;;;;;;1999.90;999.90;;;32.30;37.00;;;;;;5033437;28;20121;-79
2023/09/11 11:16:59;;;;;;;1999.90;999.90;;;32.50;36.90;;;;;;5035118;28;20025;-80
2023/09/11 11:19:32;;;;;;;1999.90;999.90;;;32.50;33.50;;;;;;5034608;28;20030;-80
2023/09/11 11:22:00;;;;;;;1999.90;999.90;;;32.70;33.40;;;;;;5038223;28;20032;-80
2023/09/11 11:24:25;;;;;;;1999.90;999.90;;;32.20;30.40;;;;;;5050988;28;20508;-79
2023/09/11 11:26:56;;;;;;;1999.90;999.90;;;32.40;30.60;;;;;;5028423;28;20044;-80
2023/09/11 11:29:26;;;;;;;1999.90;999.90;;;32.70;35.50;;;;;;5031514;28;20407;-78
2023/09/11 11:31:53;;;;;;;1999.90;999.90;;;33.00;31.80;;;;;;5033690;28;20343;-81
2023/09/11 11:34:24;;;;;;;1999.90;999.90;;;33.10;30.70;;;;;;5032648;28;20032;-80
2023/09/11 11:36:54;;;;;;;1999.90;999.90;;;33.90;31.10;;;;;;5012534;28;20493;-80
2023/09/11 11:39:20;;;;;;;;;;;33.90;29.90;;;;;;5028582;28;20087;-80
2023/09/11 11:41:46;;;;;;;1999.90;999.90;;;33.40;30.00;;;;;;5034176;28;19913;-80
2023/09/11 11:44:12;;;;;;;1999.90;999.90;;;33.50;31.50;;;;;;5027860;28;20384;-80
2023/09/11 11:46:39;;;;;;;1999.90;999.90;;;33.80;29.80;;;;;;5033406;28;20061;-79
2023/09/11 11:49:05;;;;;;;1999.90;999.90;;;34.20;29.50;;;;;;5030975;28;20025;-79
2023/09/11 11:51:31;;;;;;;1999.90;999.90;;;34.90;28.20;;;;;;5033127;28;20034;-79
2023/09/11 11:53:58;;;;;;;588.17;559.80;;;35.30;26.70;;;;;;5028476;28;20030;-80
2023/09/11 11:56:26;;;;;;;583.00;555.95;;;34.70;27.90;;;;;;5036185;28;20036;-80
2023/09/11 11:58:57;;;;;;;1999.90;999.90;;;34.80;27.60;;;;;;5037612;28;20491;-80
2023/09/11 12:01:23;;;;;;;1999.90;999.90;;;34.50;25.70;;;;;;5030655;28;20459;-80
2023/09/11 12:03:50;;;;;;;241.70;228.77;;;35.30;26.40;;;;;;5034117;28;20049;-80